.
WxDataArchive / Data Records for 2016-06-17
2016-06-16 June 2016 2016-06-18

Data Records for Friday, 17 June 2016

Time	Temp	Chill	HIndex	Humid	Dewpt	 Wind 	HiWind	WindDir	Rain 	Barom
-----	----	-----	------	-----	-----	------	------	-------	-----	-----
00:00	63.5	63.5	63.5	90	60.5	2	5	292	0.00	29.829 
00:05	63.5	63.5	63.5	90	60.5	1	4	292	0.00	29.829 
00:10	63.5	63.5	63.5	90	60.5	1	4	292	0.00	29.829 
00:15	63.7	63.7	63.7	90	60.7	1	4	292	0.00	29.836 
00:20	63.7	63.7	63.7	90	60.7	2	5	292	0.00	29.836 
00:25	63.7	63.7	63.7	90	60.7	2	5	315	0.00	29.836 
00:30	63.5	63.5	63.5	90	60.5	2	4	292	0.00	29.841 
00:35	63.5	63.5	63.5	90	60.5	1	4	292	0.00	29.841 
00:40	63.4	63.4	63.4	90	60.4	1	2	292	0.00	29.841 
00:45	63.4	63.4	63.4	90	60.4	2	5	270	0.00	29.841 
00:50	63.4	63.4	63.4	90	60.4	2	4	292	0.00	29.841 
00:55	63.4	63.4	63.4	90	60.4	1	6	292	0.00	29.841 
01:00	63.4	63.4	63.4	90	60.4	1	3	292	0.00	29.842 
01:05	63.4	63.4	63.4	90	60.4	1	4	315	0.00	29.842 
01:10	63.2	63.2	63.2	90	60.2	1	3	315	0.00	29.842 
01:15	63.2	63.2	63.2	90	60.2	0	2	315	0.00	29.844 
01:20	63.2	63.2	63.2	90	60.2	1	4	315	0.00	29.844 
01:25	63.2	63.2	63.2	90	60.2	1	3	292	0.00	29.844 
01:30	63.4	63.4	63.4	90	60.4	1	3	292	0.00	29.843 
01:35	63.4	63.4	63.4	90	60.4	1	3	292	0.00	29.843 
01:40	63.4	63.4	63.4	90	60.4	0	1	292	0.00	29.843 
01:45	63.4	63.4	63.4	90	60.4	1	5	292	0.00	29.841 
01:50	63.4	63.4	63.4	90	60.4	1	4	292	0.00	29.841 
01:55	63.2	63.2	63.2	89	59.9	0	3	292	0.00	29.841 
02:00	63.2	63.2	63.2	89	59.9	0	2	292	0.00	29.838 
02:05	63.2	63.2	63.2	90	60.2	1	2	292	0.00	29.838 
02:10	63.1	63.1	63.1	90	60.1	0	2	292	0.00	29.838 
02:15	63.1	63.1	63.1	90	60.1	1	4	292	0.00	29.843 
02:20	63.1	63.1	63.1	90	60.1	1	4	292	0.00	29.843 
02:25	63.1	63.1	63.1	90	60.1	0	3	292	0.00	29.843 
02:30	63.1	63.1	63.1	90	60.1	0	3	292	0.00	29.843 
02:35	62.9	62.9	62.9	90	59.9	0	3	292	0.00	29.843 
02:40	62.9	62.9	62.9	91	60.2	0	2	292	0.00	29.843 
02:45	62.9	62.9	62.9	91	60.2	1	4	292	0.00	29.841 
02:50	62.9	62.9	62.9	91	60.2	0	1	292	0.00	29.841 
02:55	62.9	62.9	62.9	91	60.2	0	2	292	0.00	29.841 
03:00	62.9	62.9	62.9	91	60.2	0	2	292	0.00	29.849 
03:05	62.9	62.9	62.9	91	60.2	0	4	292	0.00	29.849 
03:10	62.9	62.9	62.9	90	59.9	0	3	292	0.00	29.849 
03:15	62.7	62.7	62.7	90	59.7	0	0	---	0.00	29.851 
03:20	62.7	62.7	62.7	90	59.7	0	2	292	0.00	29.851 
03:25	62.6	62.6	62.6	90	59.6	0	2	292	0.00	29.851 
03:30	62.6	62.6	62.6	91	59.9	0	1	292	0.00	29.850 
03:35	62.6	62.6	62.6	91	59.9	0	0	---	0.00	29.850 
03:40	62.4	62.4	62.4	91	59.7	0	2	292	0.00	29.850 
03:45	62.4	62.4	62.4	91	59.7	0	1	292	0.00	29.855 
03:50	62.4	62.4	62.4	91	59.7	0	2	292	0.00	29.855 
03:55	62.4	62.4	62.4	91	59.7	0	1	292	0.00	29.855 
04:00	62.4	62.4	62.4	91	59.7	0	1	292	0.00	29.864 
04:05	62.3	62.3	62.3	91	59.6	0	2	292	0.00	29.864 
04:10	62.3	62.3	62.3	91	59.6	0	2	292	0.00	29.864 
04:15	62.3	62.3	62.3	91	59.6	0	2	292	0.00	29.863 
04:20	62.3	62.3	62.3	91	59.6	1	3	292	0.00	29.863 
04:25	62.4	62.4	62.4	90	59.4	0	1	292	0.00	29.863 
04:30	62.3	62.3	62.3	90	59.3	0	2	292	0.00	29.868 
04:35	62.3	62.3	62.3	90	59.3	0	1	292	0.00	29.868 
04:40	62.3	62.3	62.3	90	59.3	0	4	292	0.00	29.868 
04:45	62.3	62.3	62.3	90	59.3	0	1	292	0.00	29.872 
04:50	62.3	62.3	62.3	89	59.0	0	2	292	0.00	29.872 
04:55	62.1	62.1	62.1	89	58.8	0	1	292	0.00	29.872 
05:00	62.1	62.1	62.1	89	58.8	0	2	292	0.00	29.873 
05:05	62.1	62.1	62.1	89	58.8	0	1	292	0.00	29.873 
05:10	62.1	62.1	62.1	89	58.8	0	1	292	0.00	29.873 
05:15	62.1	62.1	62.1	88	58.5	0	4	292	0.00	29.876 
05:20	62.1	62.1	62.1	88	58.5	0	1	292	0.00	29.876 
05:25	62.3	62.3	62.3	88	58.7	1	3	292	0.00	29.876 
05:30	62.3	62.3	62.3	87	58.4	0	3	292	0.00	29.884 
05:35	62.3	62.3	62.3	87	58.4	0	3	292	0.00	29.884 
05:40	62.3	62.3	62.3	86	58.1	0	3	292	0.00	29.884 
05:45	62.3	62.3	62.3	86	58.1	0	3	292	0.00	29.885 
05:50	62.1	62.1	62.1	86	57.9	0	1	292	0.00	29.885 
05:55	62.1	62.1	62.1	85	57.5	0	1	292	0.00	29.885 
06:00	62.0	62.0	62.0	85	57.4	0	1	292	0.00	29.895 
06:05	62.0	62.0	62.0	85	57.4	0	1	292	0.00	29.895 
06:10	62.0	62.0	62.0	84	57.1	0	3	292	0.00	29.895 
06:15	62.1	62.1	62.1	84	57.2	0	2	292	0.00	29.901 
06:20	62.1	62.1	62.1	84	57.2	0	0	---	0.00	29.901 
06:25	62.1	62.1	62.1	83	56.9	0	1	292	0.00	29.901 
06:30	62.1	62.1	62.1	83	56.9	0	3	292	0.00	29.905 
06:35	62.1	62.1	62.1	82	56.5	0	1	292	0.00	29.905 
06:40	62.3	62.3	62.3	81	56.4	0	2	292	0.00	29.905 
06:45	62.4	62.4	62.4	81	56.5	0	2	292	0.00	29.914 
06:50	62.6	62.6	62.6	81	56.7	0	3	315	0.00	29.914 
06:55	62.6	62.6	62.6	81	56.7	0	3	315	0.00	29.914 
07:00	62.6	62.6	62.6	80	56.3	1	4	315	0.00	29.919 
07:05	62.7	62.7	62.7	79	56.1	0	3	292	0.00	29.919 
07:10	62.9	62.9	62.9	79	56.3	0	1	292	0.00	29.919 
07:15	63.1	63.1	63.1	79	56.5	0	2	292	0.00	29.920 
07:20	63.1	63.1	63.1	78	56.1	0	1	292	0.00	29.920 
07:25	63.4	63.4	63.4	77	56.1	0	2	292	0.00	29.920 
07:30	63.7	63.7	63.7	77	56.3	0	2	292	0.00	29.926 
07:35	64.0	64.0	64.0	75	55.9	0	2	292	0.00	29.926 
07:40	64.5	64.5	64.5	73	55.6	1	3	292	0.00	29.926 
07:45	65.0	65.0	65.0	72	55.7	0	2	292	0.00	29.931 
07:50	65.5	65.5	65.5	71	55.8	0	5	315	0.00	29.931 
07:55	66.1	66.1	66.1	69	55.6	0	3	22	0.00	29.931 
08:00	66.8	66.8	66.8	66	55.1	1	4	22	0.00	29.933 
08:05	67.3	67.3	67.3	65	55.1	0	3	135	0.00	29.933 
08:10	67.8	67.8	67.8	64	55.2	1	3	135	0.00	29.933 
08:15	68.4	68.4	68.4	63	55.3	1	4	135	0.00	29.933 
08:20	68.9	68.9	68.9	61	54.9	1	3	135	0.00	29.933 
08:25	69.4	69.4	69.4	60	54.9	1	4	90	0.00	29.933 
08:30	69.8	69.8	69.8	58	54.3	1	5	90	0.00	29.941 
08:35	70.3	70.3	70.3	58	54.8	1	4	90	0.00	29.941 
08:40	70.6	70.6	70.6	57	54.6	1	3	90	0.00	29.941 
08:45	70.9	70.9	70.9	56	54.4	2	4	68	0.00	29.945 
08:50	71.3	71.3	71.3	55	54.3	1	4	68	0.00	29.945 
08:55	71.5	71.5	71.5	55	54.5	1	4	112	0.00	29.945 
09:00	71.8	71.8	71.8	54	54.2	1	4	90	0.00	29.949 
09:05	72.1	72.1	72.1	55	55.0	1	3	68	0.00	29.949 
09:10	72.7	72.7	72.7	54	55.1	1	5	45	0.00	29.949 
09:15	73.0	73.0	73.0	53	54.8	2	5	112	0.00	29.954 
09:20	73.2	73.2	73.2	53	55.0	1	5	112	0.00	29.954 
09:25	73.5	73.5	73.5	51	54.2	1	4	112	0.00	29.954 
09:30	73.9	73.9	73.9	51	54.6	1	3	135	0.00	29.959 
09:35	74.2	74.2	74.2	50	54.3	1	5	135	0.00	29.959 
09:40	74.6	74.6	74.6	50	54.7	1	3	90	0.00	29.959 
09:45	75.1	75.1	77.6	52	56.3	1	4	90	0.00	29.960 
09:50	75.3	75.3	77.7	49	54.8	1	5	135	0.00	29.960 
09:55	75.4	75.4	77.8	49	54.9	1	6	90	0.00	29.960 
10:00	75.8	75.8	78.0	50	55.8	1	4	90	0.00	29.966 
10:05	76.3	76.3	78.2	47	54.6	1	3	90	0.00	29.966 
10:10	76.7	76.7	78.3	46	54.3	1	5	90	0.00	29.966 
10:15	76.8	76.8	78.4	46	54.4	1	6	90	0.00	29.970 
10:20	77.2	77.2	78.5	45	54.2	1	4	90	0.00	29.970 
10:25	77.6	77.6	78.8	47	55.8	1	6	90	0.00	29.970 
10:30	77.6	77.6	78.7	44	53.9	1	4	0	0.00	29.975 
10:35	77.7	77.7	78.7	43	53.4	1	5	68	0.00	29.975 
10:40	78.3	78.3	79.1	44	54.6	1	4	68	0.00	29.975 
10:45	78.5	78.5	79.2	43	54.1	1	4	68	0.00	29.974 
10:50	78.6	78.6	79.2	42	53.6	1	5	90	0.00	29.974 
10:55	78.6	78.6	79.1	41	52.9	2	10	112	0.00	29.974 
11:00	79.0	79.0	79.3	40	52.6	1	6	112	0.00	29.974 
11:05	79.6	79.6	79.7	40	53.1	2	5	90	0.00	29.974 
11:10	80.1	80.1	80.0	40	53.6	1	4	90	0.00	29.974 
11:15	80.3	80.3	79.9	37	51.6	1	7	90	0.00	29.974 
11:20	80.3	80.3	79.7	35	50.1	2	9	90	0.00	29.974 
11:25	80.7	80.7	80.0	35	50.5	1	4	338	0.00	29.974 
11:30	80.9	80.9	80.0	33	49.1	2	10	112	0.00	29.981 
11:35	81.4	81.4	80.4	34	50.3	2	5	112	0.00	29.981 
11:40	81.6	81.6	80.4	32	48.9	2	6	90	0.00	29.981 
11:45	81.8	81.8	80.5	32	49.0	1	4	90	0.00	29.979 
11:50	81.8	81.8	80.4	31	48.2	2	5	135	0.00	29.979 
11:55	81.8	81.8	80.3	29	46.4	2	6	68	0.00	29.979 
12:00	82.0	82.0	80.5	30	47.5	3	12	45	0.00	29.984 
12:05	82.0	82.0	80.2	26	43.7	4	13	90	0.00	29.984 
12:10	81.8	81.8	80.2	28	45.5	4	12	90	0.00	29.984 
12:15	82.0	82.0	80.3	28	45.7	2	6	68	0.00	29.987 
12:20	82.2	82.2	80.5	28	45.8	3	11	112	0.00	29.987 
12:25	82.2	82.2	80.5	28	45.8	4	9	90	0.00	29.987 
12:30	82.4	82.4	80.9	31	48.7	2	12	112	0.00	29.985 
12:35	82.4	82.4	80.5	27	45.0	4	9	90	0.00	29.985 
12:40	82.6	82.6	80.8	28	46.2	3	7	90	0.00	29.985 
12:45	82.6	82.6	80.7	27	45.2	3	10	90	0.00	29.983 
12:50	83.0	83.0	81.0	27	45.5	3	7	112	0.00	29.983 
12:55	83.0	83.0	81.0	27	45.5	3	9	90	0.00	29.983 
13:00	83.2	83.2	81.0	25	43.7	2	6	112	0.00	29.983 
13:05	83.4	83.4	81.1	25	43.9	2	5	112	0.00	29.983 
13:10	83.4	83.4	81.1	24	42.8	3	13	90	0.00	29.983 
13:15	83.2	83.2	81.0	25	43.7	3	7	90	0.00	29.980 
13:20	83.4	83.4	81.4	28	46.8	2	7	90	0.00	29.980 
13:25	83.6	83.6	81.5	28	47.0	2	6	90	0.00	29.980 
13:30	83.8	83.8	81.7	28	47.2	2	7	90	0.00	29.981 
13:35	84.0	84.0	81.6	25	44.4	3	6	90	0.00	29.981 
13:40	84.0	84.0	81.7	27	46.4	3	6	112	0.00	29.981 
13:45	83.8	83.8	81.3	23	42.0	3	10	112	0.00	29.983 
13:50	83.8	83.8	81.4	24	43.1	3	9	90	0.00	29.983 
13:55	83.8	83.8	81.5	26	45.2	3	11	90	0.00	29.983 
14:00	83.8	83.8	81.4	25	44.2	4	10	90	0.00	29.984 
14:05	84.0	84.0	81.6	26	45.4	3	7	90	0.00	29.984 
14:10	84.1	84.1	81.6	24	43.4	3	9	90	0.00	29.984 
14:15	84.0	84.0	81.6	25	44.4	2	6	68	0.00	29.986 
14:20	84.1	84.1	81.7	26	45.5	3	9	90	0.00	29.986 
14:25	84.3	84.3	81.8	25	44.6	2	6	90	0.00	29.986 
14:30	84.3	84.3	82.1	28	47.6	2	6	112	0.00	29.987 
14:35	84.3	84.3	81.8	25	44.6	2	8	90	0.00	29.987 
14:40	84.5	84.5	81.8	23	42.6	3	10	90	0.00	29.987 
14:45	84.5	84.5	81.7	21	40.3	3	11	112	0.00	29.987 
14:50	84.5	84.5	81.8	23	42.6	2	7	90	0.00	29.987 
14:55	84.5	84.5	81.8	22	41.5	3	12	112	0.00	29.987 
15:00	84.7	84.7	82.0	24	43.9	1	4	90	0.00	29.984 
15:05	85.1	85.1	82.4	25	45.3	2	6	90	0.00	29.984 
15:10	85.3	85.3	82.5	23	43.3	2	9	90	0.00	29.984 
15:15	85.3	85.3	82.5	23	43.3	2	10	90	0.00	29.994 
15:20	85.3	85.3	82.3	21	40.9	2	6	90	0.00	29.994 
15:25	85.5	85.5	82.5	21	41.1	2	7	112	0.00	29.994 
15:30	85.5	85.5	82.6	23	43.4	2	6	90	0.00	29.985 
15:35	85.1	85.1	82.2	22	41.9	4	12	90	0.00	29.985 
15:40	85.1	85.1	82.4	24	44.2	3	7	90	0.00	29.985 
15:45	84.7	84.7	82.0	23	42.8	3	10	90	0.00	29.984 
15:50	84.9	84.9	82.0	21	40.6	3	10	112	0.00	29.984 
15:55	84.9	84.9	82.0	20	39.3	3	10	90	0.00	29.984 
16:00	85.1	85.1	82.2	21	40.7	2	10	90	0.00	29.981 
16:05	85.3	85.3	82.4	22	42.1	2	5	90	0.00	29.981 
16:10	85.3	85.3	82.5	23	43.3	3	6	90	0.00	29.981 
16:15	85.3	85.3	82.3	20	39.7	1	4	68	0.00	29.977 
16:20	85.3	85.3	82.4	22	42.1	3	8	68	0.00	29.977 
16:25	85.3	85.3	82.5	24	44.4	2	6	90	0.00	29.977 
16:30	85.1	85.1	82.2	22	41.9	3	7	112	0.00	29.981 
16:35	85.3	85.3	82.4	22	42.1	2	10	90	0.00	29.981 
16:40	85.3	85.3	82.4	22	42.1	2	9	90	0.00	29.981 
16:45	85.1	85.1	82.4	24	44.2	2	6	90	0.00	29.983 
16:50	85.1	85.1	82.4	25	45.3	2	6	90	0.00	29.983 
16:55	85.1	85.1	82.3	23	43.1	2	6	112	0.00	29.983 
17:00	84.9	84.9	82.1	22	41.8	2	5	112	0.00	29.984 
17:05	84.9	84.9	82.2	24	44.1	3	7	90	0.00	29.984 
17:10	84.7	84.7	81.9	21	40.4	3	9	90	0.00	29.984 
17:15	84.7	84.7	82.0	24	43.9	2	7	90	0.00	29.986 
17:20	84.5	84.5	81.8	22	41.5	3	7	90	0.00	29.986 
17:25	84.5	84.5	81.9	24	43.7	2	7	90	0.00	29.986 
17:30	84.5	84.5	82.0	25	44.8	2	6	90	0.00	29.989 
17:35	84.5	84.5	81.8	23	42.6	2	7	90	0.00	29.989 
17:40	84.5	84.5	81.8	22	41.5	2	5	90	0.00	29.989 
17:45	84.3	84.3	81.7	23	42.4	2	5	90	0.00	29.992 
17:50	84.1	84.1	81.5	23	42.3	2	6	90	0.00	29.992 
17:55	84.0	84.0	81.4	22	41.0	2	8	90	0.00	29.992 
18:00	83.8	83.8	81.4	24	43.1	1	4	90	0.00	30.000 
18:05	83.6	83.6	81.2	24	43.0	3	11	90	0.00	30.000 
18:10	83.6	83.6	81.1	23	41.9	2	6	90	0.00	30.000 
18:15	83.4	83.4	81.1	24	42.8	2	7	112	0.00	30.005 
18:20	83.4	83.4	81.1	24	42.8	2	5	112	0.00	30.005 
18:25	83.2	83.2	80.9	24	42.6	2	6	90	0.00	30.005 
18:30	83.2	83.2	80.9	24	42.6	1	5	112	0.00	30.001 
18:35	83.0	83.0	80.8	24	42.5	1	3	45	0.00	30.001 
18:40	83.0	83.0	80.8	25	43.5	1	4	68	0.00	30.001 
18:45	82.8	82.8	80.8	26	44.4	1	2	68	0.00	30.005 
18:50	82.6	82.6	80.5	24	42.1	2	6	68	0.00	30.005 
18:55	82.6	82.6	80.5	24	42.1	3	9	112	0.00	30.005 
19:00	82.4	82.4	80.4	25	43.0	2	7	90	0.00	30.007 
19:05	82.4	82.4	80.3	24	42.0	2	10	90	0.00	30.007 
19:10	82.2	82.2	80.1	23	40.7	2	7	90	0.00	30.007 
19:15	82.0	82.0	80.0	23	40.5	2	6	68	0.00	30.005 
19:20	82.0	82.0	80.0	23	40.5	2	5	90	0.00	30.005 
19:25	81.8	81.8	80.0	25	42.5	1	5	90	0.00	30.005 
19:30	81.6	81.6	79.9	25	42.3	2	5	90	0.00	29.999 
19:35	81.6	81.6	79.9	25	42.3	1	4	68	0.00	29.999 
19:40	81.4	81.4	79.7	25	42.2	2	4	68	0.00	29.999 
19:45	81.2	81.2	79.6	25	42.0	1	5	45	0.00	30.009 
19:50	81.1	81.1	79.5	25	41.9	2	4	68	0.00	30.009 
19:55	80.9	80.9	79.4	25	41.8	2	5	68	0.00	30.009 
20:00	80.7	80.7	79.4	26	42.6	1	3	68	0.00	30.013 
20:05	80.5	80.5	79.2	26	42.4	1	3	90	0.00	30.013 
20:10	80.3	80.3	79.2	27	43.2	1	3	90	0.00	30.013 
20:15	80.1	80.1	79.0	26	42.1	1	5	90	0.00	30.010 
20:20	79.9	79.9	78.9	27	42.9	1	4	68	0.00	30.010 
20:25	79.8	79.8	78.9	27	42.8	1	2	68	0.00	30.010 
20:30	79.4	79.4	78.7	28	43.4	0	2	68	0.00	30.003 
20:35	79.2	79.2	78.5	27	42.3	1	2	68	0.00	30.003 
20:40	78.8	78.8	78.3	27	42.0	0	2	68	0.00	30.003 
20:45	78.6	78.6	78.3	28	42.7	0	1	68	0.00	30.008 
20:50	78.3	78.3	78.2	29	43.4	0	0	---	0.00	30.008 
20:55	77.9	77.9	78.1	30	43.9	0	1	68	0.00	30.008 
21:00	77.4	77.4	77.9	31	44.4	0	0	---	0.00	30.012 
21:05	76.7	76.7	77.7	32	44.6	0	0	---	0.00	30.012 
21:10	76.3	76.3	77.6	33	45.1	0	0	---	0.00	30.012 
21:15	75.8	75.8	77.4	33	44.6	0	0	---	0.00	30.002 
21:20	75.1	75.1	77.3	35	45.6	0	0	---	0.00	30.002 
21:25	74.6	74.6	74.6	35	45.1	0	0	---	0.00	30.002 
21:30	73.9	73.9	73.9	36	45.2	0	0	---	0.00	30.005 
21:35	73.3	73.3	73.3	37	45.4	0	0	---	0.00	30.005 
21:40	72.8	72.8	72.8	39	46.4	0	0	---	0.00	30.005 
21:45	72.3	72.3	72.3	41	47.3	0	0	---	0.00	30.011 
21:50	72.0	72.0	72.0	42	47.6	0	0	---	0.00	30.011 
21:55	71.5	71.5	71.5	43	47.8	0	0	---	0.00	30.011 
22:00	70.9	70.9	70.9	44	47.9	0	0	---	0.00	30.011 
22:05	70.6	70.6	70.6	45	48.2	0	0	---	0.00	30.011 
22:10	70.1	70.1	70.1	46	48.3	0	0	---	0.00	30.011 
22:15	69.6	69.6	69.6	48	49.0	0	0	---	0.00	30.022 
22:20	69.1	69.1	69.1	49	49.1	0	0	---	0.00	30.022 
22:25	68.8	68.8	68.8	50	49.4	0	0	---	0.00	30.022 
22:30	68.4	68.4	68.4	51	49.6	0	0	---	0.00	30.029 
22:35	68.1	68.1	68.1	51	49.3	0	0	---	0.00	30.029 
22:40	67.8	67.8	67.8	52	49.5	0	0	---	0.00	30.029 
22:45	67.6	67.6	67.6	52	49.3	0	0	---	0.00	30.036 
22:50	67.1	67.1	67.1	52	48.9	0	0	---	0.00	30.036 
22:55	66.8	66.8	66.8	55	50.1	0	0	---	0.00	30.036 
23:00	66.4	66.4	66.4	56	50.2	0	0	---	0.00	30.044 
23:05	66.1	66.1	66.1	58	50.9	0	0	---	0.00	30.044 
23:10	65.8	65.8	65.8	59	51.1	0	0	---	0.00	30.044 
23:15	65.6	65.6	65.6	59	50.9	0	0	---	0.00	30.046 
23:20	65.3	65.3	65.3	58	50.1	0	0	---	0.00	30.046 
23:25	65.0	65.0	65.0	58	49.9	0	0	---	0.00	30.046 
23:30	64.8	64.8	64.8	58	49.7	0	0	---	0.00	30.046 
23:35	64.7	64.7	64.7	59	50.0	0	0	---	0.00	30.046 
23:40	64.5	64.5	64.5	60	50.3	0	0	---	0.00	30.046 
23:45	64.2	64.2	64.2	60	50.0	0	0	---	0.00	30.047 
23:50	64.0	64.0	64.0	62	50.7	0	0	---	0.00	30.047 
23:55	63.7	63.7	63.7	62	50.4	0	0	---	0.00	30.047 

CoCoRaHS
IN-AL-39
A2 Web Hosting
Creative Commons License
GoDaddy
search engine by freefind advanced

loaded 2018-11-21 00:29:59 • last modified 2010-11-18 10:43:29
Privacy PolicyDisclaimer
• wx.awcolley.com is powered by PmWiki v.2002016 •
• all content (unless otherwise noted) © 2018 A W Colley